Time;durP1;ratioP1;P1;durP2;ratioP2;P2;SDS_P1;SDS_P2;PMS_P1;PMS_P2;Temp;Humidity;BMP_temperature;BMP_pressure;BME280_temperature;BME280_humidity;BME280_pressure;Samples;Min_cycle;Max_cycle;Signal;HPM_P1;HPM_P2
2021/06/09 00:02:08;;;;;;;9.27;8.38;;;;;;;20.91;61.55;100619.47;5087944;28;20505;-62
2021/06/09 00:04:35;;;;;;;8.93;8.10;;;;;;;20.89;61.27;100619.59;5091047;28;20051;-61
2021/06/09 00:07:02;;;;;;;9.38;8.48;;;;;;;20.90;61.39;100623.94;5091387;28;20119;-62
2021/06/09 00:09:29;;;;;;;9.43;8.23;;;;;;;20.88;61.19;100623.22;5087958;28;20029;-62
2021/06/09 00:11:55;;;;;;;9.82;8.65;;;;;;;20.88;61.46;100625.03;5084254;28;20040;-62
2021/06/09 00:14:23;;;;;;;9.00;8.27;;;;;;;20.80;61.45;100628.34;5081599;28;20458;-62
2021/06/09 00:16:49;;;;;;;10.23;8.23;;;;;;;20.80;61.92;100624.84;5082896;28;20433;-62
2021/06/09 00:19:17;;;;;;;10.52;8.85;;;;;;;20.82;61.52;100625.56;5082023;28;20047;-62
2021/06/09 00:21:47;;;;;;;11.88;8.18;;;;;;;20.81;61.44;100627.38;5086930;28;20036;-60
2021/06/09 00:24:16;;;;;;;8.93;8.10;;;;;;;20.84;61.15;100627.13;5088196;28;20105;-61
2021/06/09 00:26:43;;;;;;;8.27;7.53;;;;;;;20.83;61.07;100625.44;5088860;28;20044;-62
2021/06/09 00:29:11;;;;;;;8.73;7.85;;;;;;;20.82;61.12;100626.38;5093200;28;20041;-62
2021/06/09 00:31:38;;;;;;;8.18;7.38;;;;;;;20.80;61.03;100632.81;5081665;28;20040;-62
2021/06/09 00:34:05;;;;;;;9.65;6.95;;;;;;;20.80;61.23;100628.34;5079179;28;20074;-62
2021/06/09 00:36:32;;;;;;;8.80;7.50;;;;;;;20.77;61.30;100623.31;5084274;28;20134;-62
2021/06/09 00:38:59;;;;;;;9.75;7.20;;;;;;;20.75;61.21;100622.59;5081076;28;20040;-62
2021/06/09 00:41:26;;;;;;;7.50;6.80;;;;;;;20.76;61.19;100621.63;5084321;28;20062;-62
2021/06/09 00:43:55;;;;;;;7.72;7.03;;;;;;;20.78;60.80;100616.22;5081988;28;20406;-63
2021/06/09 00:46:30;;;;;;;8.63;7.93;;;;;;;20.74;60.82;100615.63;5078853;28;20499;-63
2021/06/09 00:48:57;;;;;;;8.32;7.63;;;;;;;20.74;60.80;100613.00;5081211;28;20051;-62
2021/06/09 00:51:24;;;;;;;15.65;7.63;;;;;;;20.75;60.65;100613.81;5081578;28;20037;-62
2021/06/09 00:54:06;;;;;;;8.90;8.10;;;;;;;20.73;60.48;100616.63;5062429;28;20119;-62
2021/06/09 00:56:36;;;;;;;8.55;7.63;;;;;;;20.71;60.33;100609.75;5080159;28;20044;-63
2021/06/09 00:59:04;;;;;;;11.88;7.00;;;;;;;20.73;60.48;100618.44;5076544;28;20504;-63
2021/06/09 01:01:32;;;;;;;10.25;8.18;;;;;;;20.70;60.28;100616.03;5077659;28;20035;-62
2021/06/09 01:04:00;;;;;;;7.63;7.00;;;;;;;20.66;60.50;100607.50;5079065;28;20488;-62
2021/06/09 01:06:26;;;;;;;7.40;6.70;;;;;;;20.66;60.58;100600.38;5084396;28;20052;-62
2021/06/09 01:08:53;;;;;;;7.97;7.28;;;;;;;20.65;61.02;100597.88;5079020;28;20119;-62
2021/06/09 01:11:26;;;;;;;12.80;8.50;;;;;;;20.61;60.94;100593.81;5082759;28;20028;-61
2021/06/09 01:13:54;;;;;;;7.78;7.05;;;;;;;20.64;60.99;100596.22;5079968;28;20036;-62
2021/06/09 01:16:23;;;;;;;9.45;8.30;;;;;;;20.62;60.76;100593.69;5081364;28;20132;-62
2021/06/09 01:18:51;;;;;;;7.95;7.25;;;;;;;20.61;60.81;100601.75;5082429;28;20043;-62
2021/06/09 01:21:34;;;;;;;8.32;7.50;;;;;;;20.63;60.48;100602.47;5081515;28;20093;-62
2021/06/09 01:24:02;;;;;;;8.27;7.47;;;;;;;20.60;60.34;100600.94;5082877;28;20117;-62
2021/06/09 01:26:31;;;;;;;8.52;7.65;;;;;;;20.58;60.66;100607.34;5083335;28;20051;-62
2021/06/09 01:28:59;;;;;;;8.00;7.30;;;;;;;20.54;61.02;100605.91;5080190;28;20531;-61
2021/06/09 01:31:27;;;;;;;8.30;7.50;;;;;;;20.54;61.01;100608.56;5086640;28;20040;-63
2021/06/09 01:33:55;;;;;;;9.40;7.55;;;;;;;20.53;60.94;100609.53;5089258;28;20127;-63
2021/06/09 01:36:23;;;;;;;8.55;7.60;;;;;;;20.53;60.73;100612.19;5086264;28;20048;-62
2021/06/09 01:38:51;;;;;;;10.85;8.23;;;;;;;20.51;60.89;100604.38;5085975;28;20089;-62
2021/06/09 01:41:22;;;;;;;9.45;8.48;;;;;;;20.48;60.83;100601.16;5082766;28;20048;-62
2021/06/09 01:43:51;;;;;;;8.75;6.75;;;;;;;20.47;61.08;100599.47;5085949;28;20098;-62
2021/06/09 01:46:18;;;;;;;8.35;7.50;;;;;;;20.48;60.75;100601.16;5086615;28;20044;-62
2021/06/09 01:48:45;;;;;;;12.40;8.30;;;;;;;20.42;61.73;100597.19;5086376;28;20075;-62
2021/06/09 01:51:12;;;;;;;7.65;6.95;;;;;;;20.47;61.32;100597.66;5086531;28;20036;-62
2021/06/09 01:53:39;;;;;;;8.90;8.02;;;;;;;20.46;61.27;100593.34;5083095;28;20039;-62
2021/06/09 01:56:06;;;;;;;8.73;7.93;;;;;;;20.47;61.46;100599.47;5084043;28;20036;-62
2021/06/09 01:58:33;;;;;;;8.93;8.02;;;;;;;20.46;61.31;100590.72;5085983;28;20048;-62
2021/06/09 02:01:00;;;;;;;8.55;7.75;;;;;;;20.48;61.07;100583.44;5085971;28;20040;-62
2021/06/09 02:03:27;;;;;;;10.32;8.68;;;;;;;20.47;60.72;100586.25;5086287;28;20062;-62
2021/06/09 02:05:53;;;;;;;10.73;8.30;;;;;;;20.48;60.81;100588.75;5084430;28;20424;-61
2021/06/09 02:08:20;;;;;;;10.55;7.75;;;;;;;20.48;60.85;100591.41;5086463;28;20105;-61
2021/06/09 02:10:47;;;;;;;11.90;7.55;;;;;;;20.48;60.85;100587.91;5084230;28;20368;-62
2021/06/09 02:13:16;;;;;;;8.77;7.97;;;;;;;20.48;60.75;100593.22;5084562;28;20367;-61
2021/06/09 02:15:50;;;;;;;13.15;9.35;;;;;;;20.47;60.56;100597.66;5082972;28;20040;-61
2021/06/09 02:18:22;;;;;;;9.13;8.23;;;;;;;20.48;60.57;100594.03;5083285;28;20044;-60
2021/06/09 02:20:52;;;;;;;10.65;9.55;;;;;;;20.47;60.51;100594.19;5086074;28;20145;-60
2021/06/09 02:23:28;;;;;;;9.85;8.35;;;;;;;20.47;60.45;100600.31;5080630;28;20036;-60
2021/06/09 02:25:58;;;;;;;9.45;8.27;;;;;;;20.44;60.79;100597.88;5079349;28;20052;-62
2021/06/09 02:28:27;;;;;;;9.00;8.07;;;;;;;20.46;60.63;100596.00;5085214;28;20047;-62
2021/06/09 02:30:54;;;;;;;9.52;8.63;;;;;;;20.46;60.49;100592.47;5084122;28;20448;-62
2021/06/09 02:33:23;;;;;;;10.80;8.80;;;;;;;20.45;60.37;100596.91;5082886;28;20036;-62
2021/06/09 02:35:52;;;;;;;10.20;9.30;;;;;;;20.46;60.29;100597.78;5084595;28;20364;-61
2021/06/09 02:38:20;;;;;;;9.38;8.48;;;;;;;20.47;60.25;100600.31;5087564;28;20040;-62
2021/06/09 02:40:50;;;;;;;10.38;9.38;;;;;;;20.47;60.06;100602.13;5081541;28;20033;-62
2021/06/09 02:43:18;;;;;;;11.18;8.77;;;;;;;20.47;60.06;100595.03;5079768;28;20039;-61
2021/06/09 02:45:49;;;;;;;11.77;8.85;;;;;;;20.47;60.20;100602.97;5081288;28;20052;-61
2021/06/09 02:48:18;;;;;;;9.45;7.90;;;;;;;20.45;60.10;100601.38;5084608;28;20443;-61
2021/06/09 02:50:46;;;;;;;10.63;9.52;;;;;;;20.45;60.23;100606.66;5081835;28;20041;-61
2021/06/09 02:53:30;;;;;;;10.68;9.05;;;;;;;20.45;60.00;100606.66;5084500;28;20044;-61
2021/06/09 02:56:11;;;;;;;;;;;;;;;20.45;60.08;100606.66;5083969;28;20094;-63
2021/06/09 02:59:13;;;;;;;12.55;9.45;;;;;;;20.38;60.10;100601.06;5081821;28;20378;-61
2021/06/09 03:01:49;;;;;;;10.10;9.10;;;;;;;20.40;60.30;100594.69;5082302;28;20179;-62
2021/06/09 03:04:45;;;;;;;10.73;9.73;;;;;;;20.40;59.98;100605.28;5079637;28;20135;-62
2021/06/09 03:07:34;;;;;;;9.73;8.82;;;;;;;20.40;60.21;100599.97;5084365;28;20044;-61
2021/06/09 03:10:12;;;;;;;10.00;9.00;;;;;;;20.38;60.07;100601.91;5083735;28;20044;-62
2021/06/09 03:12:52;;;;;;;9.25;8.35;;;;;;;20.38;60.38;100601.91;5085162;28;20033;-62
2021/06/09 03:15:27;;;;;;;11.52;8.38;;;;;;;20.37;59.91;100605.53;5081348;28;20397;-61
2021/06/09 03:18:04;;;;;;;10.43;8.88;;;;;;;20.34;60.32;100605.78;5070648;28;20079;-62
2021/06/09 03:20:46;;;;;;;10.18;9.07;;;;;;;20.35;60.32;100599.53;5084850;28;20223;-61
2021/06/09 03:23:23;;;;;;;9.38;8.52;;;;;;;20.29;60.24;100607.97;5091827;28;20131;-63
2021/06/09 03:25:59;;;;;;;9.63;8.68;;;;;;;20.32;60.33;100618.31;5092770;28;20036;-62
2021/06/09 03:28:33;;;;;;;9.57;8.63;;;;;;;20.29;60.08;100617.72;5090200;28;20048;-61
2021/06/09 03:31:03;;;;;;;;;;;;;;;20.19;60.42;100620.34;5094186;28;20059;-60
2021/06/09 03:33:35;;;;;;;10.40;8.60;;;;;;;20.18;60.68;100623.09;5093293;28;19946;-61
2021/06/09 03:36:25;;;;;;;9.80;8.82;;;;;;;20.19;60.98;100625.63;5093413;28;20044;-59
2021/06/09 03:38:56;;;;;;;14.10;9.32;;;;;;;20.10;61.18;100621.09;5093349;28;20036;-61
2021/06/09 03:41:29;;;;;;;9.88;8.88;;;;;;;20.13;61.11;100624.34;5094123;28;20433;-61
2021/06/09 03:43:58;;;;;;;11.27;8.80;;;;;;;20.13;61.31;100627.00;5092616;28;20090;-61
2021/06/09 03:46:27;;;;;;;11.13;8.52;;;;;;;20.08;61.66;100626.53;5101224;28;20040;-61
2021/06/09 03:48:55;;;;;;;10.85;9.80;;;;;;;20.11;61.41;100626.25;5094178;28;20394;-61
2021/06/09 03:51:24;;;;;;;9.20;8.35;;;;;;;20.14;61.09;100620.72;5086574;28;20036;-62
2021/06/09 03:53:54;;;;;;;11.02;10.02;;;;;;;20.14;61.12;100626.00;5092883;28;20039;-60
2021/06/09 03:56:24;;;;;;;10.43;9.32;;;;;;;20.17;61.15;100635.50;5092777;28;20046;-60
2021/06/09 03:58:53;;;;;;;10.95;9.48;;;;;;;20.14;61.32;100636.59;5088211;28;20563;-61
2021/06/09 04:01:20;;;;;;;11.73;10.57;;;;;;;20.15;61.31;100634.78;5101710;28;20092;-60
2021/06/09 04:03:48;;;;;;;10.55;9.25;;;;;;;20.12;61.53;100635.88;5098524;28;20036;-60
2021/06/09 04:06:18;;;;;;;11.70;9.75;;;;;;;20.20;61.45;100640.53;5093290;28;20395;-60
2021/06/09 04:08:46;;;;;;;10.38;9.38;;;;;;;20.16;61.54;100639.09;5093211;28;20494;-60
2021/06/09 04:11:18;;;;;;;12.38;9.05;;;;;;;20.18;61.50;100637.16;5092606;28;20058;-60
2021/06/09 04:13:47;;;;;;;11.77;9.07;;;;;;;20.16;61.81;100647.06;5093394;28;20096;-60
2021/06/09 04:16:17;;;;;;;9.93;8.45;;;;;;;20.19;61.64;100641.50;5092853;28;20131;-60
2021/06/09 04:18:47;;;;;;;9.50;8.65;;;;;;;20.20;61.93;100645.84;5092982;28;20425;-61
2021/06/09 04:21:15;;;;;;;9.13;8.10;;;;;;;20.22;61.89;100648.34;5096509;28;20046;-60
2021/06/09 04:23:42;;;;;;;9.35;8.43;;;;;;;20.19;62.33;100645.94;5102488;28;20044;-60
2021/06/09 04:26:12;;;;;;;9.57;8.68;;;;;;;20.25;61.77;100648.09;5092769;28;20048;-60
2021/06/09 04:28:39;;;;;;;9.27;8.25;;;;;;;20.26;61.49;100645.31;5100620;28;20055;-60
2021/06/09 04:31:07;;;;;;;9.57;8.60;;;;;;;20.28;61.40;100647.81;5092660;28;20098;-60
2021/06/09 04:33:33;;;;;;;9.20;8.30;;;;;;;20.31;62.01;100653.72;5093101;28;20040;-60
2021/06/09 04:36:00;;;;;;;9.70;7.95;;;;;;;20.33;62.05;100649.09;5086892;28;20495;-60
2021/06/09 04:38:27;;;;;;;10.90;8.57;;;;;;;20.33;61.92;100649.09;5084926;28;20480;-60
2021/06/09 04:40:54;;;;;;;11.68;9.02;;;;;;;20.37;61.62;100642.59;5085033;28;20044;-60
2021/06/09 04:43:23;;;;;;;9.38;8.48;;;;;;;20.44;61.48;100652.66;5080317;28;20117;-60
2021/06/09 04:45:50;;;;;;;12.45;8.95;;;;;;;20.45;61.43;100649.03;5076040;28;20453;-61
2021/06/09 04:48:18;;;;;;;12.10;8.30;;;;;;;20.47;61.46;100649.78;5077512;28;20071;-61
2021/06/09 04:50:48;;;;;;;9.95;8.90;;;;;;;20.52;61.42;100644.94;5082624;28;20036;-60
2021/06/09 04:53:15;;;;;;;9.35;8.45;;;;;;;20.55;61.34;100642.03;5079111;28;20040;-60
2021/06/09 04:55:44;;;;;;;9.38;8.10;;;;;;;20.58;61.65;100636.47;5077593;28;20569;-61
2021/06/09 04:58:12;;;;;;;9.85;8.43;;;;;;;20.58;61.77;100644.41;5080998;28;20063;-61
2021/06/09 05:00:41;;;;;;;10.88;9.45;;;;;;;20.64;61.55;100644.72;5081601;28;20036;-62
2021/06/09 05:03:08;;;;;;;9.50;8.38;;;;;;;20.73;61.53;100651.06;5085757;28;20684;-62
2021/06/09 05:05:35;;;;;;;9.15;8.25;;;;;;;20.77;61.53;100654.25;5084208;28;20395;-61
2021/06/09 05:08:03;;;;;;;9.98;8.02;;;;;;;20.81;61.59;100656.50;5082445;28;20032;-61
2021/06/09 05:10:30;;;;;;;9.88;8.95;;;;;;;20.87;61.82;100663.94;5079602;28;20375;-61
2021/06/09 05:13:23;;;;;;;12.30;8.50;;;;;;;20.91;61.84;100662.69;5084535;28;20097;-61
2021/06/09 05:15:57;;;;;;;20.05;8.98;;;;;;;20.99;62.41;100655.91;5083340;28;20474;-62
2021/06/09 05:18:27;;;;;;;9.63;8.63;;;;;;;21.05;62.03;100658.03;5082642;28;20067;-62
2021/06/09 05:20:55;;;;;;;8.70;7.82;;;;;;;21.09;63.45;100654.09;5084182;28;20111;-62
2021/06/09 05:23:29;;;;;;;10.60;9.43;;;;;;;21.18;63.21;100651.50;5084563;28;20037;-61
2021/06/09 05:25:58;;;;;;;9.90;8.23;;;;;;;21.29;62.87;100650.53;5084818;28;20551;-61
2021/06/09 05:28:33;;;;;;;8.77;7.95;;;;;;;21.43;62.73;100660.81;5081569;28;20060;-61
2021/06/09 05:31:01;;;;;;;9.85;8.20;;;;;;;21.51;62.27;100659.28;5079977;28;20048;-61
2021/06/09 05:33:30;;;;;;;9.30;7.95;;;;;;;21.61;61.93;100660.13;5084182;28;20043;-61
2021/06/09 05:35:58;;;;;;;8.70;7.63;;;;;;;21.66;61.08;100658.75;5081713;28;20043;-60
2021/06/09 05:38:25;;;;;;;9.48;8.43;;;;;;;21.74;61.10;100665.19;5088038;28;20491;-61
2021/06/09 05:40:56;;;;;;;9.00;8.05;;;;;;;21.78;60.56;100662.09;5079040;28;20037;-61
2021/06/09 05:43:25;;;;;;;9.38;7.95;;;;;;;21.82;60.07;100665.31;5083662;28;20090;-61
2021/06/09 05:45:52;;;;;;;10.30;8.20;;;;;;;21.89;59.92;100669.09;5083975;28;20544;-61
2021/06/09 05:48:19;;;;;;;9.20;8.35;;;;;;;21.94;59.88;100662.41;5083143;28;20389;-61
2021/06/09 05:50:50;;;;;;;10.80;8.60;;;;;;;22.02;59.52;100668.81;5084224;28;20037;-60
2021/06/09 05:53:17;;;;;;;9.43;8.52;;;;;;;22.07;59.51;100663.94;5083321;28;20262;-62
2021/06/09 05:55:47;;;;;;;13.55;9.15;;;;;;;22.12;59.00;100662.56;5067991;28;20043;-61
2021/06/09 05:58:19;;;;;;;10.18;9.15;;;;;;;22.19;59.21;100666.31;5090396;28;20044;-61
2021/06/09 06:01:04;;;;;;;10.52;9.18;;;;;;;22.18;58.97;100669.13;5095592;28;20123;-59
2021/06/09 06:03:31;;;;;;;11.77;8.70;;;;;;;22.26;59.03;100663.91;5094161;28;20115;-61
2021/06/09 06:06:00;;;;;;;13.55;10.60;;;;;;;22.34;58.37;100672.03;5098454;28;20039;-63
2021/06/09 06:08:28;;;;;;;9.60;8.48;;;;;;;22.39;58.28;100671.59;5103922;28;20052;-63
2021/06/09 06:11:00;;;;;;;10.45;9.38;;;;;;;22.51;58.73;100665.16;5094634;28;20090;-60
2021/06/09 06:13:27;;;;;;;10.30;8.77;;;;;;;22.69;58.49;100667.88;5095035;28;20070;-63
2021/06/09 06:15:55;;;;;;;9.18;8.27;;;;;;;22.85;57.73;100672.59;5100729;28;20046;-62
2021/06/09 06:18:36;;;;;;;10.07;9.07;;;;;;;23.04;57.14;100682.34;5094152;28;20048;-62
2021/06/09 06:21:04;;;;;;;9.18;8.27;;;;;;;23.19;56.44;100678.22;5083419;28;20045;-60
2021/06/09 06:23:31;;;;;;;9.15;8.35;;;;;;;23.30;55.63;100667.38;5095961;28;20040;-61
2021/06/09 06:26:10;;;;;;;10.60;7.53;;;;;;;23.65;56.29;100665.78;5108628;28;20142;-61
2021/06/09 06:28:41;;;;;;;11.07;9.98;;;;;;;23.95;54.74;100665.41;5106513;28;20047;-61
2021/06/09 06:31:12;;;;;;;9.68;8.50;;;;;;;24.25;54.04;100666.00;5101539;28;20051;-61
2021/06/09 06:33:41;;;;;;;9.73;8.70;;;;;;;24.43;53.53;100665.97;5094688;28;20105;-62
2021/06/09 06:36:09;;;;;;;9.02;7.65;;;;;;;24.65;53.49;100661.97;5076116;28;20398;-62
2021/06/09 06:38:37;;;;;;;13.07;9.48;;;;;;;24.65;52.64;100667.28;5093818;28;20044;-61
2021/06/09 06:41:08;;;;;;;14.35;10.23;;;;;;;24.49;52.74;100671.50;5094315;28;20131;-62
2021/06/09 06:43:36;;;;;;;10.55;9.45;;;;;;;24.55;53.54;100673.59;5094525;28;20043;-62
2021/06/09 06:46:12;;;;;;;12.68;11.38;;;;;;;24.45;54.86;100675.50;5094554;28;20425;-62
2021/06/09 06:48:40;;;;;;;18.75;13.65;;;;;;;24.36;55.72;100673.78;5097325;28;20122;-62
2021/06/09 06:51:09;;;;;;;13.38;12.25;;;;;;;24.54;54.54;100676.38;5094739;28;20483;-62
2021/06/09 06:53:41;;;;;;;12.68;11.48;;;;;;;24.61;54.40;100677.44;5093657;28;20047;-63
2021/06/09 06:56:09;;;;;;;13.70;11.55;;;;;;;24.87;53.39;100681.91;5079232;28;20040;-62
2021/06/09 06:58:37;;;;;;;11.80;10.57;;;;;;;25.00;52.10;100677.81;5093979;28;20051;-61
2021/06/09 07:01:04;;;;;;;11.90;10.80;;;;;;;25.07;52.06;100684.22;5097780;28;20089;-61
2021/06/09 07:03:35;;;;;;;14.15;11.10;;;;;;;25.42;51.69;100679.69;5090621;28;20040;-61
2021/06/09 07:06:03;;;;;;;11.95;10.80;;;;;;;25.69;50.95;100680.41;5091740;28;20036;-60
2021/06/09 07:08:30;;;;;;;17.60;10.32;;;;;;;25.85;49.95;100685.81;5093534;28;20044;-60
2021/06/09 07:10:57;;;;;;;12.10;10.48;;;;;;;25.94;50.57;100679.47;5094361;28;20040;-60
2021/06/09 07:13:24;;;;;;;12.57;11.48;;;;;;;26.12;49.85;100682.81;5094897;28;20513;-60
2021/06/09 07:15:54;;;;;;;12.73;11.55;;;;;;;26.43;47.94;100684.00;5093078;28;20364;-60
2021/06/09 07:18:26;;;;;;;13.13;10.80;;;;;;;26.97;47.33;100682.38;5090797;28;20043;-60
2021/06/09 07:20:53;;;;;;;11.20;10.02;;;;;;;27.62;46.63;100686.59;5091212;28;20040;-62
2021/06/09 07:23:20;;;;;;;12.70;10.40;;;;;;;28.15;44.42;100683.06;5080084;28;20036;-60
2021/06/09 07:25:47;;;;;;;13.38;10.63;;;;;;;28.14;43.92;100681.41;5081564;28;20441;-61
2021/06/09 07:28:17;;;;;;;12.63;11.38;;;;;;;28.09;44.32;100683.78;5080103;28;20048;-61
2021/06/09 07:30:44;;;;;;;12.68;11.57;;;;;;;27.91;44.96;100681.41;5081411;28;20044;-60
2021/06/09 07:33:13;;;;;;;12.20;10.40;;;;;;;28.47;44.17;100686.50;5083861;28;20079;-62
2021/06/09 07:35:40;;;;;;;15.32;10.63;;;;;;;28.41;43.79;100689.91;5089747;28;20576;-61
2021/06/09 07:38:18;;;;;;;13.50;11.52;;;;;;;28.81;43.48;100687.81;5092474;28;20032;-62
2021/06/09 07:40:50;;;;;;;12.65;11.50;;;;;;;28.71;42.91;100694.31;5093019;28;20445;-63
2021/06/09 07:43:21;;;;;;;12.40;10.05;;;;;;;28.91;43.26;100683.00;5080732;28;20130;-63
2021/06/09 07:45:49;;;;;;;13.52;12.27;;;;;;;28.83;43.11;100685.78;5089344;28;20414;-61
2021/06/09 07:48:19;;;;;;;11.40;10.20;;;;;;;28.53;43.83;100691.13;5074878;28;20077;-62
2021/06/09 07:50:53;;;;;;;13.48;10.32;;;;;;;28.65;43.34;100683.44;5091879;28;20066;-62
2021/06/09 07:53:21;;;;;;;13.80;12.50;;;;;;;28.54;42.74;100684.72;5090959;28;20097;-62
2021/06/09 07:55:49;;;;;;;11.93;9.23;;;;;;;28.47;43.39;100680.28;5070294;28;20044;-61
2021/06/09 07:58:18;;;;;;;13.70;12.40;;;;;;;28.17;44.54;100681.00;5091597;28;20048;-62
2021/06/09 08:00:46;;;;;;;16.45;12.80;;;;;;;28.27;44.29;100683.44;5087129;28;20094;-63
2021/06/09 08:03:13;;;;;;;17.48;10.82;;;;;;;28.76;42.96;100679.47;5090973;28;20040;-64
2021/06/09 08:05:41;;;;;;;11.85;10.52;;;;;;;29.13;42.10;100682.06;5089008;28;20043;-63
2021/06/09 08:08:12;;;;;;;17.17;12.52;;;;;;;29.29;41.20;100680.22;5080613;28;20077;-63
2021/06/09 08:10:43;;;;;;;12.55;10.40;;;;;;;29.84;40.94;100684.16;5083491;28;21107;-63
2021/06/09 08:13:10;;;;;;;10.23;9.00;;;;;;;30.23;40.39;100684.53;5080409;28;20067;-63
2021/06/09 08:15:38;;;;;;;12.20;9.65;;;;;;;30.53;39.61;100687.06;5088830;28;20113;-64
2021/06/09 08:18:06;;;;;;;14.35;10.88;;;;;;;30.39;39.26;100693.34;5085770;28;20516;-63
2021/06/09 08:20:36;;;;;;;12.57;10.43;;;;;;;30.63;39.93;100687.53;5090555;28;20040;-63
2021/06/09 08:23:02;;;;;;;10.25;9.18;;;;;;;30.53;40.30;100689.75;5086030;28;20048;-65
2021/06/09 08:25:29;;;;;;;13.23;11.95;;;;;;;30.29;39.07;100682.94;5077102;28;20829;-63
2021/06/09 08:27:56;;;;;;;13.38;12.05;;;;;;;29.85;40.26;100685.81;5090204;28;20094;-63
2021/06/09 08:30:23;;;;;;;13.43;11.93;;;;;;;29.45;40.52;100686.19;5091508;28;20048;-63
2021/06/09 08:32:50;;;;;;;17.00;13.00;;;;;;;29.58;40.39;100690.09;5094503;28;20113;-61
2021/06/09 08:35:18;;;;;;;15.80;11.95;;;;;;;29.45;41.05;100685.34;5092116;28;20537;-64
2021/06/09 08:37:45;;;;;;;12.23;10.93;;;;;;;29.55;41.25;100685.09;5091588;28;20090;-63
2021/06/09 08:40:12;;;;;;;17.90;12.07;;;;;;;29.36;41.21;100689.19;5091747;28;20567;-64
2021/06/09 08:42:42;;;;;;;15.20;11.18;;;;;;;29.68;41.41;100690.63;5091808;28;20494;-64
2021/06/09 08:45:11;;;;;;;12.35;10.80;;;;;;;29.42;40.94;100688.44;5090790;28;20044;-64
2021/06/09 08:47:39;;;;;;;12.50;11.30;;;;;;;29.07;42.00;100688.19;5089615;28;20055;-67
2021/06/09 08:50:09;;;;;;;12.23;11.05;;;;;;;29.26;42.00;100694.03;5090808;28;20436;-69
2021/06/09 08:52:44;;;;;;;10.30;8.75;;;;;;;29.62;42.03;100692.22;5090627;28;20040;-70
2021/06/09 08:55:12;;;;;;;11.27;9.15;;;;;;;29.88;41.45;100691.66;5091346;28;20044;-71
2021/06/09 08:57:40;;;;;;;11.82;10.63;;;;;;;29.80;40.86;100689.06;5090622;28;20036;-67
2021/06/09 09:00:09;;;;;;;13.27;12.07;;;;;;;29.71;40.70;100693.72;5091658;28;20036;-69
2021/06/09 09:02:36;;;;;;;13.10;11.57;;;;;;;29.21;41.19;100683.84;5090049;28;20036;-71
2021/06/09 09:05:03;;;;;;;11.85;10.45;;;;;;;29.28;40.50;100683.91;5090858;28;20507;-69
2021/06/09 09:07:29;;;;;;;10.95;9.50;;;;;;;29.01;40.31;100690.81;5090692;28;20075;-69
2021/06/09 09:09:58;;;;;;;12.57;11.43;;;;;;;29.04;41.31;100685.91;5090204;28;20482;-69
2021/06/09 09:12:25;;;;;;;8.90;8.07;;;;;;;29.08;41.73;100692.53;5086661;28;20048;-70
2021/06/09 09:14:52;;;;;;;10.50;9.02;;;;;;;29.12;42.15;100695.69;5086989;28;20375;-71
2021/06/09 09:17:19;;;;;;;12.35;11.15;;;;;;;29.05;40.32;100700.97;5090612;28;20036;-69
2021/06/09 09:19:46;;;;;;;9.80;7.60;;;;;;;28.87;39.18;100693.28;5091165;28;20102;-70
2021/06/09 09:22:21;;;;;;;10.00;9.07;;;;;;;29.01;40.82;100688.94;5090040;28;20456;-70
2021/06/09 09:24:50;;;;;;;11.75;7.78;;;;;;;29.12;41.51;100693.00;5089063;28;20044;-69
2021/06/09 09:27:28;;;;;;;9.70;8.73;;;;;;;29.09;40.98;100690.72;5089925;28;20040;-69
2021/06/09 09:30:01;;;;;;;10.00;9.05;;;;;;;28.60;41.55;100691.22;5089836;28;20040;-69
2021/06/09 09:32:28;;;;;;;10.98;9.90;;;;;;;28.67;40.44;100690.31;5090951;28;20486;-69
2021/06/09 09:35:05;;;;;;;10.18;9.13;;;;;;;28.63;39.68;100689.00;5090271;28;20059;-67
2021/06/09 09:37:32;;;;;;;38.85;10.90;;;;;;;28.66;41.45;100688.66;5084520;28;20089;-67
2021/06/09 09:40:16;;;;;;;19.65;11.57;;;;;;;28.51;41.34;100685.13;5090891;28;20437;-68
2021/06/09 09:42:47;;;;;;;11.20;9.25;;;;;;;28.57;41.53;100691.59;5091348;28;20036;-66
2021/06/09 09:45:27;;;;;;;10.65;8.82;;;;;;;28.69;42.43;100692.81;5093771;28;20048;-67
2021/06/09 09:48:03;;;;;;;12.20;8.88;;;;;;;28.68;41.45;100689.28;5090189;28;20036;-67
2021/06/09 09:50:35;;;;;;;10.43;8.65;;;;;;;28.83;41.49;100688.47;5093514;28;20044;-67
2021/06/09 09:53:20;;;;;;;9.83;8.60;;;;;;;28.79;41.71;100695.22;5095143;28;20547;-65
2021/06/09 09:56:15;;;;;;;13.65;9.48;;;;;;;28.89;42.31;100695.78;5092774;28;20044;-65
2021/06/09 09:58:53;;;;;;;16.17;10.80;;;;;;;28.61;42.48;100693.72;5092917;28;20036;-65
2021/06/09 10:01:22;;;;;;;11.93;10.82;;;;;;;28.39;41.08;100698.13;5091541;28;20036;-65
2021/06/09 10:03:56;;;;;;;12.90;10.50;;;;;;;28.56;42.04;100701.50;5093546;28;20051;-69
2021/06/09 10:06:41;;;;;;;11.02;8.20;;;;;;;28.67;42.04;100690.31;5092866;28;20040;-71
2021/06/09 10:09:16;;;;;;;10.35;9.32;;;;;;;28.55;41.48;100699.84;5097869;28;20661;-66
2021/06/09 10:11:46;;;;;;;9.05;7.53;;;;;;;28.74;41.82;100679.66;5098049;28;20040;-64
2021/06/09 10:14:16;;;;;;;11.15;9.73;;;;;;;28.57;42.50;100688.91;5092984;28;20040;-64
2021/06/09 10:16:43;;;;;;;12.25;9.90;;;;;;;28.51;42.53;100684.28;5091632;28;20036;-66
2021/06/09 10:19:12;;;;;;;11.43;10.35;;;;;;;28.61;41.72;100688.38;5096998;28;20044;-64
2021/06/09 10:22:04;;;;;;;12.05;10.60;;;;;;;28.52;42.36;100684.09;5094421;28;20105;-65
2021/06/09 10:24:43;;;;;;;12.25;10.25;;;;;;;28.29;42.67;100683.28;5093934;28;20043;-65
2021/06/09 10:27:11;;;;;;;10.27;9.15;;;;;;;28.44;43.88;100689.53;5088518;28;20041;-65
2021/06/09 10:29:38;;;;;;;12.35;11.02;;;;;;;28.44;42.78;100689.53;5093256;28;20041;-63
2021/06/09 10:32:11;;;;;;;17.95;9.77;;;;;;;28.30;43.29;100687.63;5093405;28;20097;-64
2021/06/09 10:34:39;;;;;;;12.35;9.20;;;;;;;28.36;43.38;100685.09;5094102;28;20502;-64
2021/06/09 10:37:08;;;;;;;14.38;12.27;;;;;;;28.36;42.68;100677.03;5093344;28;20556;-65
2021/06/09 10:39:38;;;;;;;16.80;10.57;;;;;;;28.47;43.59;100677.63;5093847;28;20047;-65
2021/06/09 10:42:11;;;;;;;10.88;9.68;;;;;;;28.50;43.61;100678.09;5096769;28;20043;-65
2021/06/09 10:44:41;;;;;;;11.93;10.83;;;;;;;28.53;43.14;100683.06;5094673;28;20044;-64
2021/06/09 10:47:13;;;;;;;11.43;10.27;;;;;;;28.41;42.93;100671.97;5093899;28;20066;-66
2021/06/09 10:49:41;;;;;;;16.05;11.90;;;;;;;28.46;42.40;100671.41;5095359;28;20044;-63
2021/06/09 10:52:09;;;;;;;9.90;9.00;;;;;;;28.48;43.35;100674.75;5094280;28;20039;-63
2021/06/09 10:54:36;;;;;;;10.27;9.27;;;;;;;28.58;43.24;100667.25;5089595;28;20044;-63
2021/06/09 10:57:06;;;;;;;19.05;10.55;;;;;;;28.44;43.22;100670.75;5093176;28;20093;-62
2021/06/09 10:59:34;;;;;;;11.23;9.18;;;;;;;28.41;43.37;100671.13;5093196;28;20093;-62
2021/06/09 11:02:08;;;;;;;13.35;11.75;;;;;;;28.43;42.58;100669.09;5096426;28;20040;-63
2021/06/09 11:04:38;;;;;;;10.38;8.98;;;;;;;28.49;42.47;100668.34;5094974;28;20486;-62
2021/06/09 11:07:27;;;;;;;9.75;8.63;;;;;;;28.45;42.24;100659.88;5093736;28;20048;-63
2021/06/09 11:09:56;;;;;;;10.48;9.50;;;;;;;28.39;42.13;100662.41;5091381;28;20080;-63
2021/06/09 11:12:28;;;;;;;11.05;10.00;;;;;;;28.46;42.43;100660.69;5093246;28;20061;-63
2021/06/09 11:15:08;;;;;;;12.13;10.93;;;;;;;28.39;42.62;100659.75;5093148;28;20071;-64
2021/06/09 11:17:34;;;;;;;12.10;10.00;;;;;;;28.40;42.59;100656.06;5091874;28;20498;-62
2021/06/09 11:20:24;;;;;;;11.45;10.30;;;;;;;28.47;43.39;100653.47;5092851;28;20071;-64
2021/06/09 11:23:03;;;;;;;12.13;10.43;;;;;;;28.39;42.60;100654.38;5094313;28;20044;-61
2021/06/09 11:25:43;;;;;;;11.68;8.82;;;;;;;28.39;42.73;100652.56;5089750;28;20474;-63
2021/06/09 11:28:32;;;;;;;11.32;7.60;;;;;;;28.47;42.02;100657.00;5091981;28;20039;-63
2021/06/09 11:31:27;;;;;;;11.73;10.60;;;;;;;28.33;41.30;100652.44;5092424;28;20055;-61
2021/06/09 11:34:02;;;;;;;9.10;8.27;;;;;;;28.45;42.96;100648.31;5094276;28;20036;-64
2021/06/09 11:36:43;;;;;;;11.73;10.00;;;;;;;28.44;42.43;100654.66;5092303;28;20046;-61